sensor_id;sensor_type;location;lat;lon;timestamp;pressure;altitude;pressure_sealevel;temperature;humidity
64019;BME280;66942;52.138;5.216;2023-04-30T00:00:26;102430.0;;;14.07;49.84
64019;BME280;66942;52.138;5.216;2023-04-30T00:02:02;102430.0;;;13.94;50.06
64019;BME280;66942;52.138;5.216;2023-04-30T00:03:38;102427.0;;;13.72;49.96
64019;BME280;66942;52.138;5.216;2023-04-30T00:06:50;102422.0;;;13.74;50.22
64019;BME280;66942;52.138;5.216;2023-04-30T00:08:26;102424.0;;;14.01;49.71
64019;BME280;66942;52.138;5.216;2023-04-30T00:10:03;102423.0;;;13.92;49.93
64019;BME280;66942;52.138;5.216;2023-04-30T00:13:16;102422.0;;;13.97;49.73
64019;BME280;66942;52.138;5.216;2023-04-30T00:14:52;102425.0;;;14.24;48.99
64019;BME280;66942;52.138;5.216;2023-04-30T00:16:28;102423.0;;;13.82;50.05
64019;BME280;66942;52.138;5.216;2023-04-30T00:19:40;102421.0;;;13.77;50.23
64019;BME280;66942;52.138;5.216;2023-04-30T00:21:17;102419.0;;;13.75;50.0
64019;BME280;66942;52.138;5.216;2023-04-30T00:22:54;102421.0;;;13.61;50.64
64019;BME280;66942;52.138;5.216;2023-04-30T00:24:31;102413.00000000001;;;13.38;50.78
64019;BME280;66942;52.138;5.216;2023-04-30T00:27:43;102417.0;;;13.56;50.53
64019;BME280;66942;52.138;5.216;2023-04-30T00:29:19;102417.0;;;13.9;49.49
64019;BME280;66942;52.138;5.216;2023-04-30T00:30:55;102421.0;;;14.18;48.63
64019;BME280;66942;52.138;5.216;2023-04-30T00:34:07;102420.0;;;14.12;48.72
64019;BME280;66942;52.138;5.216;2023-04-30T00:35:43;102419.0;;;13.98;49.19
64019;BME280;66942;52.138;5.216;2023-04-30T00:37:19;102422.0;;;13.69;50.02
64019;BME280;66942;52.138;5.216;2023-04-30T00:40:33;102425.0;;;13.36;50.99
64019;BME280;66942;52.138;5.216;2023-04-30T00:42:09;102431.0;;;13.32;50.88
64019;BME280;66942;52.138;5.216;2023-04-30T00:43:45;102427.0;;;13.52;49.9
64019;BME280;66942;52.138;5.216;2023-04-30T00:46:57;102436.99999999999;;;13.52;50.16
64019;BME280;66942;52.138;5.216;2023-04-30T00:48:33;102441.00000000001;;;13.47;50.42
64019;BME280;66942;52.138;5.216;2023-04-30T00:50:10;102445.0;;;13.19;51.13
64019;BME280;66942;52.138;5.216;2023-04-30T00:51:46;102445.0;;;13.25;51.0
64019;BME280;66942;52.138;5.216;2023-04-30T00:55:00;102450.0;;;13.3;50.92
64019;BME280;66942;52.138;5.216;2023-04-30T00:56:36;102450.0;;;13.03;51.56
64019;BME280;66942;52.138;5.216;2023-04-30T00:58:12;102449.0;;;12.97;51.45
64019;BME280;66942;52.138;5.216;2023-04-30T01:01:26;102451.0;;;12.99;51.45
64019;BME280;66942;52.138;5.216;2023-04-30T01:03:02;102455.0;;;12.99;51.49
64019;BME280;66942;52.138;5.216;2023-04-30T01:04:38;102448.0;;;12.99;51.21
64019;BME280;66942;52.138;5.216;2023-04-30T01:07:51;102449.0;;;13.04;51.36
64019;BME280;66942;52.138;5.216;2023-04-30T01:09:29;102451.0;;;12.82;51.61
64019;BME280;66942;52.138;5.216;2023-04-30T01:11:14;102454.0;;;13.22;50.72
64019;BME280;66942;52.138;5.216;2023-04-30T01:13:02;102449.0;;;13.63;49.58
64019;BME280;66942;52.138;5.216;2023-04-30T01:16:40;102448.0;;;13.53;49.78
64019;BME280;66942;52.138;5.216;2023-04-30T01:18:25;102451.0;;;13.28;50.36
64019;BME280;66942;52.138;5.216;2023-04-30T01:20:04;102456.0;;;13.27;50.61
64019;BME280;66942;52.138;5.216;2023-04-30T01:21:42;102453.0;;;13.59;49.59
64019;BME280;66942;52.138;5.216;2023-04-30T01:23:27;102457.0;;;13.26;50.37
64019;BME280;66942;52.138;5.216;2023-04-30T01:25:43;102452.0;;;12.92;51.7
64019;BME280;66942;52.138;5.216;2023-04-30T01:27:31;102451.0;;;12.95;51.39
64019;BME280;66942;52.138;5.216;2023-04-30T01:30:54;102448.0;;;13.18;50.62
64019;BME280;66942;52.138;5.216;2023-04-30T01:32:30;102454.0;;;13.37;50.07
64019;BME280;66942;52.138;5.216;2023-04-30T01:34:06;102452.0;;;13.04;50.76
64019;BME280;66942;52.138;5.216;2023-04-30T01:35:53;102450.0;;;12.94;50.94
64019;BME280;66942;52.138;5.216;2023-04-30T01:39:49;102456.0;;;13.01;50.81
64019;BME280;66942;52.138;5.216;2023-04-30T01:42:05;102456.0;;;12.92;50.96
64019;BME280;66942;52.138;5.216;2023-04-30T01:45:51;102453.0;;;12.9;50.93
64019;BME280;66942;52.138;5.216;2023-04-30T01:47:38;102455.0;;;12.83;50.84
64019;BME280;66942;52.138;5.216;2023-04-30T01:49:29;102454.0;;;12.77;51.12
64019;BME280;66942;52.138;5.216;2023-04-30T01:51:18;102458.99999999999;;;12.73;51.24
64019;BME280;66942;52.138;5.216;2023-04-30T01:53:02;102457.0;;;12.64;51.43
64019;BME280;66942;52.138;5.216;2023-04-30T01:54:44;102457.0;;;12.7;51.31
64019;BME280;66942;52.138;5.216;2023-04-30T01:58:10;102464.00000000001;;;12.71;50.89
64019;BME280;66942;52.138;5.216;2023-04-30T01:59:47;102464.00000000001;;;12.58;51.21
64019;BME280;66942;52.138;5.216;2023-04-30T02:01:26;102461.99999999999;;;12.65;51.14
64019;BME280;66942;52.138;5.216;2023-04-30T02:03:03;102465.00000000001;;;12.89;50.47
64019;BME280;66942;52.138;5.216;2023-04-30T02:06:16;102467.0;;;12.69;50.85
64019;BME280;66942;52.138;5.216;2023-04-30T02:07:52;102465.00000000001;;;12.79;50.75
64019;BME280;66942;52.138;5.216;2023-04-30T02:09:28;102467.0;;;12.88;50.48
64019;BME280;66942;52.138;5.216;2023-04-30T02:12:40;102466.00000000001;;;12.91;50.42
64019;BME280;66942;52.138;5.216;2023-04-30T02:14:16;102464.00000000001;;;13.23;49.44
64019;BME280;66942;52.138;5.216;2023-04-30T02:15:54;102467.0;;;13.29;49.41
64019;BME280;66942;52.138;5.216;2023-04-30T02:17:30;102463.00000000001;;;12.96;50.17
64019;BME280;66942;52.138;5.216;2023-04-30T02:20:44;102465.00000000001;;;12.79;50.62
64019;BME280;66942;52.138;5.216;2023-04-30T02:22:20;102461.99999999999;;;12.91;50.48
64019;BME280;66942;52.138;5.216;2023-04-30T02:23:56;102459.99999999999;;;13.09;49.87
64019;BME280;66942;52.138;5.216;2023-04-30T02:27:08;102457.0;;;12.83;50.7
64019;BME280;66942;52.138;5.216;2023-04-30T02:28:44;102458.99999999999;;;12.63;51.16
64019;BME280;66942;52.138;5.216;2023-04-30T02:30:21;102456.0;;;12.69;51.07
64019;BME280;66942;52.138;5.216;2023-04-30T02:33:34;102458.99999999999;;;12.72;51.05
64019;BME280;66942;52.138;5.216;2023-04-30T02:35:10;102454.0;;;13.02;50.18
64019;BME280;66942;52.138;5.216;2023-04-30T02:36:46;102455.0;;;12.76;50.63
64019;BME280;66942;52.138;5.216;2023-04-30T02:39:59;102451.0;;;12.47;51.52
64019;BME280;66942;52.138;5.216;2023-04-30T02:41:35;102453.0;;;12.59;51.49
64019;BME280;66942;52.138;5.216;2023-04-30T02:43:11;102449.0;;;12.77;50.82
64019;BME280;66942;52.138;5.216;2023-04-30T02:44:47;102443.0;;;12.45;51.46
64019;BME280;66942;52.138;5.216;2023-04-30T02:47:59;102445.0;;;12.53;51.55
64019;BME280;66942;52.138;5.216;2023-04-30T02:49:35;102439.00000000001;;;12.8;50.69
64019;BME280;66942;52.138;5.216;2023-04-30T02:51:12;102440.00000000001;;;13.17;49.63
64019;BME280;66942;52.138;5.216;2023-04-30T02:54:24;102436.99999999999;;;12.92;50.12
64019;BME280;66942;52.138;5.216;2023-04-30T02:56:00;102440.00000000001;;;12.81;50.52
64019;BME280;66942;52.138;5.216;2023-04-30T02:57:36;102440.00000000001;;;12.72;50.75
64019;BME280;66942;52.138;5.216;2023-04-30T03:00:49;102443.0;;;12.65;51.07
64019;BME280;66942;52.138;5.216;2023-04-30T03:02:25;102445.0;;;12.56;51.26
64019;BME280;66942;52.138;5.216;2023-04-30T03:04:01;102445.0;;;12.49;51.39
64019;BME280;66942;52.138;5.216;2023-04-30T03:05:37;102444.0;;;12.52;51.64
64019;BME280;66942;52.138;5.216;2023-04-30T03:08:51;102442.0;;;12.37;51.9
64019;BME280;66942;52.138;5.216;2023-04-30T03:10:27;102441.00000000001;;;12.51;51.74
64019;BME280;66942;52.138;5.216;2023-04-30T03:12:03;102444.0;;;12.73;50.92
64019;BME280;66942;52.138;5.216;2023-04-30T03:15:18;102449.0;;;12.59;51.36
64019;BME280;66942;52.138;5.216;2023-04-30T03:16:54;102446.0;;;12.36;51.85
64019;BME280;66942;52.138;5.216;2023-04-30T03:18:31;102442.0;;;12.27;52.18
64019;BME280;66942;52.138;5.216;2023-04-30T03:21:46;102444.0;;;12.21;51.9
64019;BME280;66942;52.138;5.216;2023-04-30T03:23:22;102442.0;;;12.11;52.8
64019;BME280;66942;52.138;5.216;2023-04-30T03:24:59;102446.0;;;12.28;52.27
64019;BME280;66942;52.138;5.216;2023-04-30T03:26:35;102450.0;;;12.41;52.08
64019;BME280;66942;52.138;5.216;2023-04-30T03:29:49;102451.0;;;12.53;51.4
64019;BME280;66942;52.138;5.216;2023-04-30T03:31:25;102448.0;;;12.44;51.74
64019;BME280;66942;52.138;5.216;2023-04-30T03:33:02;102447.0;;;12.32;52.16
64019;BME280;66942;52.138;5.216;2023-04-30T03:36:16;102442.0;;;12.42;51.75
64019;BME280;66942;52.138;5.216;2023-04-30T03:37:52;102439.00000000001;;;12.28;52.16
64019;BME280;66942;52.138;5.216;2023-04-30T03:39:28;102434.99999999999;;;12.18;52.14
64019;BME280;66942;52.138;5.216;2023-04-30T03:42:42;102434.99999999999;;;12.33;51.84
64019;BME280;66942;52.138;5.216;2023-04-30T03:44:18;102433.0;;;12.32;51.56
64019;BME280;66942;52.138;5.216;2023-04-30T03:45:55;102427.0;;;12.52;51.04
64019;BME280;66942;52.138;5.216;2023-04-30T03:47:31;102426.0;;;12.52;50.9
64019;BME280;66942;52.138;5.216;2023-04-30T03:50:44;102426.0;;;12.34;51.56
64019;BME280;66942;52.138;5.216;2023-04-30T03:52:20;102429.0;;;12.34;51.57
64019;BME280;66942;52.138;5.216;2023-04-30T03:53:56;102427.0;;;12.25;51.64
64019;BME280;66942;52.138;5.216;2023-04-30T03:57:09;102430.0;;;12.11;52.21
64019;BME280;66942;52.138;5.216;2023-04-30T03:58:45;102430.0;;;12.31;51.49
64019;BME280;66942;52.138;5.216;2023-04-30T04:00:22;102430.0;;;12.56;50.99
64019;BME280;66942;52.138;5.216;2023-04-30T04:03:35;102429.0;;;12.46;51.29
64019;BME280;66942;52.138;5.216;2023-04-30T04:05:11;102426.0;;;12.2;51.73
64019;BME280;66942;52.138;5.216;2023-04-30T04:06:47;102427.0;;;12.27;51.54
64019;BME280;66942;52.138;5.216;2023-04-30T04:08:23;102430.0;;;12.18;51.56
64019;BME280;66942;52.138;5.216;2023-04-30T04:11:35;102433.0;;;12.07;51.93
64019;BME280;66942;52.138;5.216;2023-04-30T04:13:12;102432.0;;;11.93;52.04
64019;BME280;66942;52.138;5.216;2023-04-30T04:14:48;102432.0;;;12.08;52.1
64019;BME280;66942;52.138;5.216;2023-04-30T04:18:00;102440.00000000001;;;12.34;51.23
64019;BME280;66942;52.138;5.216;2023-04-30T04:19:36;102433.99999999999;;;12.16;51.72
64019;BME280;66942;52.138;5.216;2023-04-30T04:21:12;102431.0;;;11.87;52.14
64019;BME280;66942;52.138;5.216;2023-04-30T04:24:25;102429.0;;;11.88;52.32
64019;BME280;66942;52.138;5.216;2023-04-30T04:26:01;102433.0;;;12.09;51.83
64019;BME280;66942;52.138;5.216;2023-04-30T04:27:38;102424.0;;;11.88;52.73
64019;BME280;66942;52.138;5.216;2023-04-30T04:30:50;102424.0;;;11.94;51.96
64019;BME280;66942;52.138;5.216;2023-04-30T04:32:26;102423.0;;;12.21;51.44
64019;BME280;66942;52.138;5.216;2023-04-30T04:34:03;102424.0;;;12.2;51.45
64019;BME280;66942;52.138;5.216;2023-04-30T04:35:40;102427.0;;;12.13;51.3
64019;BME280;66942;52.138;5.216;2023-04-30T04:38:53;102430.0;;;12.42;50.9
64019;BME280;66942;52.138;5.216;2023-04-30T04:40:30;102432.0;;;12.44;50.78
64019;BME280;66942;52.138;5.216;2023-04-30T04:42:06;102434.99999999999;;;12.3;51.39
64019;BME280;66942;52.138;5.216;2023-04-30T04:45:19;102434.99999999999;;;12.23;51.38
64019;BME280;66942;52.138;5.216;2023-04-30T04:46:56;102433.99999999999;;;12.12;51.83
64019;BME280;66942;52.138;5.216;2023-04-30T04:48:32;102441.00000000001;;;12.28;51.83
64019;BME280;66942;52.138;5.216;2023-04-30T04:51:45;102440.00000000001;;;12.18;51.85
64019;BME280;66942;52.138;5.216;2023-04-30T04:53:21;102436.99999999999;;;12.35;51.45
64019;BME280;66942;52.138;5.216;2023-04-30T04:54:57;102443.0;;;12.53;51.08
64019;BME280;66942;52.138;5.216;2023-04-30T04:56:33;102441.00000000001;;;12.24;51.83
64019;BME280;66942;52.138;5.216;2023-04-30T04:59:46;102442.0;;;12.19;52.24
64019;BME280;66942;52.138;5.216;2023-04-30T05:01:22;102439.00000000001;;;12.25;51.87
64019;BME280;66942;52.138;5.216;2023-04-30T05:02:58;102433.99999999999;;;12.24;52.2
64019;BME280;66942;52.138;5.216;2023-04-30T05:06:10;102433.99999999999;;;12.2;52.47
64019;BME280;66942;52.138;5.216;2023-04-30T05:07:46;102433.0;;;12.46;51.92
64019;BME280;66942;52.138;5.216;2023-04-30T05:09:23;102439.00000000001;;;12.53;51.92
64019;BME280;66942;52.138;5.216;2023-04-30T05:12:36;102436.99999999999;;;12.4;52.05
64019;BME280;66942;52.138;5.216;2023-04-30T05:14:12;102432.0;;;12.35;52.5
64019;BME280;66942;52.138;5.216;2023-04-30T05:15:50;102432.0;;;12.83;51.43
64019;BME280;66942;52.138;5.216;2023-04-30T05:17:27;102436.99999999999;;;13.12;50.7
64019;BME280;66942;52.138;5.216;2023-04-30T05:20:39;102433.99999999999;;;12.8;51.67
64019;BME280;66942;52.138;5.216;2023-04-30T05:22:15;102431.0;;;12.81;51.89
64019;BME280;66942;52.138;5.216;2023-04-30T05:23:51;102432.0;;;12.98;51.67
64019;BME280;66942;52.138;5.216;2023-04-30T05:27:04;102434.99999999999;;;13.32;50.98
64019;BME280;66942;52.138;5.216;2023-04-30T05:28:40;102433.0;;;13.56;50.68
64019;BME280;66942;52.138;5.216;2023-04-30T05:30:16;102438.00000000001;;;13.43;51.29
64019;BME280;66942;52.138;5.216;2023-04-30T05:33:28;102441.00000000001;;;13.54;51.31
64019;BME280;66942;52.138;5.216;2023-04-30T05:35:05;102442.0;;;13.95;50.69
64019;BME280;66942;52.138;5.216;2023-04-30T05:36:41;102443.0;;;14.22;50.51
64019;BME280;66942;52.138;5.216;2023-04-30T05:38:18;102449.0;;;14.29;50.97
64019;BME280;66942;52.138;5.216;2023-04-30T05:41:31;102456.0;;;14.77;49.99
64019;BME280;66942;52.138;5.216;2023-04-30T05:43:07;102457.0;;;14.9;49.95
64019;BME280;66942;52.138;5.216;2023-04-30T05:44:43;102448.0;;;15.14;50.57
64019;BME280;66942;52.138;5.216;2023-04-30T05:47:55;102455.0;;;15.26;50.49
64019;BME280;66942;52.138;5.216;2023-04-30T05:49:31;102459.99999999999;;;15.5;50.32
64019;BME280;66942;52.138;5.216;2023-04-30T05:51:07;102456.0;;;15.59;50.48
64019;BME280;66942;52.138;5.216;2023-04-30T05:54:20;102465.00000000001;;;15.76;49.5
64019;BME280;66942;52.138;5.216;2023-04-30T05:55:56;102467.0;;;15.98;49.51
64019;BME280;66942;52.138;5.216;2023-04-30T05:57:33;102469.0;;;15.89;50.18
64019;BME280;66942;52.138;5.216;2023-04-30T06:00:48;102463.00000000001;;;16.18;48.87
64019;BME280;66942;52.138;5.216;2023-04-30T06:02:24;102467.0;;;16.22;49.1
64019;BME280;66942;52.138;5.216;2023-04-30T06:04:00;102459.99999999999;;;16.53;48.78
64019;BME280;66942;52.138;5.216;2023-04-30T06:05:36;102457.0;;;16.84;47.33
64019;BME280;66942;52.138;5.216;2023-04-30T06:08:49;102465.00000000001;;;17.09;46.29
64019;BME280;66942;52.138;5.216;2023-04-30T06:10:25;102466.00000000001;;;17.16;46.03
64019;BME280;66942;52.138;5.216;2023-04-30T06:12:01;102465.00000000001;;;17.05;47.52
64019;BME280;66942;52.138;5.216;2023-04-30T06:15:16;102461.99999999999;;;17.36;46.18
64019;BME280;66942;52.138;5.216;2023-04-30T06:16:52;102467.0;;;17.37;46.58
64019;BME280;66942;52.138;5.216;2023-04-30T06:18:28;102467.0;;;17.52;46.11
64019;BME280;66942;52.138;5.216;2023-04-30T06:21:42;102466.00000000001;;;17.06;46.33
64019;BME280;66942;52.138;5.216;2023-04-30T06:23:19;102465.00000000001;;;17.66;45.27
64019;BME280;66942;52.138;5.216;2023-04-30T06:24:55;102468.0;;;17.73;45.26
64019;BME280;66942;52.138;5.216;2023-04-30T06:26:31;102465.00000000001;;;17.64;44.51
64019;BME280;66942;52.138;5.216;2023-04-30T06:29:43;102469.0;;;17.59;44.28
64019;BME280;66942;52.138;5.216;2023-04-30T06:31:20;102468.0;;;17.64;45.07
64019;BME280;66942;52.138;5.216;2023-04-30T06:32:57;102458.99999999999;;;17.93;44.27
64019;BME280;66942;52.138;5.216;2023-04-30T06:36:10;102463.00000000001;;;17.73;43.84
64019;BME280;66942;52.138;5.216;2023-04-30T06:37:46;102456.0;;;17.91;43.64
64019;BME280;66942;52.138;5.216;2023-04-30T06:39:22;102457.0;;;17.89;43.52
64019;BME280;66942;52.138;5.216;2023-04-30T06:42:35;102458.99999999999;;;18.0;43.62
64019;BME280;66942;52.138;5.216;2023-04-30T06:44:11;102458.99999999999;;;18.0;44.09
64019;BME280;66942;52.138;5.216;2023-04-30T06:45:47;102456.0;;;17.95;44.03
64019;BME280;66942;52.138;5.216;2023-04-30T06:47:23;102467.0;;;18.38;43.24
64019;BME280;66942;52.138;5.216;2023-04-30T06:50:36;102471.0;;;17.84;43.94
64019;BME280;66942;52.138;5.216;2023-04-30T06:52:13;102469.0;;;17.73;44.32
64019;BME280;66942;52.138;5.216;2023-04-30T06:53:49;102466.00000000001;;;18.25;43.15
64019;BME280;66942;52.138;5.216;2023-04-30T06:57:02;102470.0;;;18.57;42.45
64019;BME280;66942;52.138;5.216;2023-04-30T06:58:38;102472.0;;;18.63;42.36
64019;BME280;66942;52.138;5.216;2023-04-30T07:00:14;102471.0;;;18.8;41.85
64019;BME280;66942;52.138;5.216;2023-04-30T07:03:27;102471.0;;;18.97;41.29
64019;BME280;66942;52.138;5.216;2023-04-30T07:05:03;102475.0;;;19.36;40.72
64019;BME280;66942;52.138;5.216;2023-04-30T07:06:40;102474.0;;;19.41;41.14
64019;BME280;66942;52.138;5.216;2023-04-30T07:08:17;102474.0;;;19.25;40.67
64019;BME280;66942;52.138;5.216;2023-04-30T07:11:30;102484.99999999999;;;19.25;41.09
64019;BME280;66942;52.138;5.216;2023-04-30T07:13:06;102482.0;;;19.06;41.14
64019;BME280;66942;52.138;5.216;2023-04-30T07:14:42;102479.0;;;19.16;40.78
64019;BME280;66942;52.138;5.216;2023-04-30T07:17:54;102479.0;;;19.12;40.61
64019;BME280;66942;52.138;5.216;2023-04-30T07:19:30;102481.0;;;19.11;40.57
64019;BME280;66942;52.138;5.216;2023-04-30T07:21:07;102482.0;;;18.75;41.37
64019;BME280;66942;52.138;5.216;2023-04-30T07:24:20;102478.0;;;19.32;40.47
64019;BME280;66942;52.138;5.216;2023-04-30T07:25:56;102480.0;;;19.43;40.42
64019;BME280;66942;52.138;5.216;2023-04-30T07:27:33;102476.0;;;19.56;41.03
64019;BME280;66942;52.138;5.216;2023-04-30T07:30:45;102480.0;;;19.73;40.11
64019;BME280;66942;52.138;5.216;2023-04-30T07:32:21;102481.0;;;20.03;39.64
64019;BME280;66942;52.138;5.216;2023-04-30T07:33:57;102477.0;;;20.11;38.76
64019;BME280;66942;52.138;5.216;2023-04-30T07:35:34;102475.0;;;20.41;38.76
64019;BME280;66942;52.138;5.216;2023-04-30T07:38:47;102467.0;;;20.43;38.33
64019;BME280;66942;52.138;5.216;2023-04-30T07:40:23;102471.0;;;20.65;37.99
64019;BME280;66942;52.138;5.216;2023-04-30T07:41:59;102474.0;;;20.88;37.93
64019;BME280;66942;52.138;5.216;2023-04-30T07:45:11;102474.0;;;21.29;36.64
64019;BME280;66942;52.138;5.216;2023-04-30T07:46:47;102470.0;;;21.51;36.64
64019;BME280;66942;52.138;5.216;2023-04-30T07:48:26;102468.0;;;21.5;37.06
64019;BME280;66942;52.138;5.216;2023-04-30T07:51:39;102470.0;;;21.16;36.71
64019;BME280;66942;52.138;5.216;2023-04-30T07:53:16;102461.99999999999;;;21.93;35.03
64019;BME280;66942;52.138;5.216;2023-04-30T07:54:53;102465.00000000001;;;22.29;35.68
64019;BME280;66942;52.138;5.216;2023-04-30T07:56:29;102463.00000000001;;;22.32;35.49
64019;BME280;66942;52.138;5.216;2023-04-30T07:59:42;102454.0;;;22.23;36.82
64019;BME280;66942;52.138;5.216;2023-04-30T08:01:18;102455.0;;;22.71;34.46
64019;BME280;66942;52.138;5.216;2023-04-30T08:02:54;102458.0;;;22.69;34.92
64019;BME280;66942;52.138;5.216;2023-04-30T08:06:06;102455.0;;;22.95;34.31
64019;BME280;66942;52.138;5.216;2023-04-30T08:07:42;102453.0;;;22.47;33.37
64019;BME280;66942;52.138;5.216;2023-04-30T08:09:18;102458.99999999999;;;23.0;32.99
64019;BME280;66942;52.138;5.216;2023-04-30T08:12:31;102452.0;;;23.05;32.21
64019;BME280;66942;52.138;5.216;2023-04-30T08:14:10;102456.0;;;22.89;33.04
64019;BME280;66942;52.138;5.216;2023-04-30T08:15:46;102458.0;;;23.09;32.92
64019;BME280;66942;52.138;5.216;2023-04-30T08:17:22;102459.99999999999;;;22.94;32.71
64019;BME280;66942;52.138;5.216;2023-04-30T08:20:34;102455.0;;;23.21;33.74
64019;BME280;66942;52.138;5.216;2023-04-30T08:22:10;102456.0;;;23.4;32.67
64019;BME280;66942;52.138;5.216;2023-04-30T08:23:46;102457.0;;;23.41;32.65
64019;BME280;66942;52.138;5.216;2023-04-30T08:26:59;102461.99999999999;;;23.54;33.35
64019;BME280;66942;52.138;5.216;2023-04-30T08:28:36;102456.0;;;23.42;33.35
64019;BME280;66942;52.138;5.216;2023-04-30T08:30:12;102456.0;;;23.81;32.51
64019;BME280;66942;52.138;5.216;2023-04-30T08:33:24;102455.0;;;23.84;31.19
64019;BME280;66942;52.138;5.216;2023-04-30T08:35:00;102458.0;;;23.34;31.73
64019;BME280;66942;52.138;5.216;2023-04-30T08:36:37;102457.0;;;23.81;34.17
64019;BME280;66942;52.138;5.216;2023-04-30T08:38:13;102458.99999999999;;;23.51;32.79
64019;BME280;66942;52.138;5.216;2023-04-30T08:41:25;102458.0;;;23.79;31.16
64019;BME280;66942;52.138;5.216;2023-04-30T08:43:06;102454.0;;;23.63;32.28
64019;BME280;66942;52.138;5.216;2023-04-30T08:44:43;102449.0;;;23.9;31.06
64019;BME280;66942;52.138;5.216;2023-04-30T08:47:58;102451.0;;;23.85;31.29
64019;BME280;66942;52.138;5.216;2023-04-30T08:49:35;102454.0;;;23.97;31.49
64019;BME280;66942;52.138;5.216;2023-04-30T08:51:12;102451.0;;;24.22;31.29
64019;BME280;66942;52.138;5.216;2023-04-30T08:54:27;102458.99999999999;;;23.73;31.05
64019;BME280;66942;52.138;5.216;2023-04-30T08:56:05;102452.0;;;23.99;31.29
64019;BME280;66942;52.138;5.216;2023-04-30T08:57:44;102452.0;;;23.74;31.41
64019;BME280;66942;52.138;5.216;2023-04-30T08:59:21;102453.0;;;23.07;32.21
64019;BME280;66942;52.138;5.216;2023-04-30T09:02:38;102448.0;;;24.23;32.22
64019;BME280;66942;52.138;5.216;2023-04-30T09:04:15;102443.0;;;24.35;31.13
64019;BME280;66942;52.138;5.216;2023-04-30T09:05:51;102443.0;;;24.48;31.68
64019;BME280;66942;52.138;5.216;2023-04-30T09:09:12;102447.0;;;24.08;31.71
64019;BME280;66942;52.138;5.216;2023-04-30T09:10:48;102447.0;;;23.67;32.78
64019;BME280;66942;52.138;5.216;2023-04-30T09:12:25;102444.0;;;24.28;32.32
64019;BME280;66942;52.138;5.216;2023-04-30T09:14:02;102446.0;;;24.3;32.44
64019;BME280;66942;52.138;5.216;2023-04-30T09:17:20;102442.0;;;24.67;31.87
64019;BME280;66942;52.138;5.216;2023-04-30T09:18:57;102445.0;;;24.26;32.17
64019;BME280;66942;52.138;5.216;2023-04-30T09:20:34;102445.0;;;24.77;32.14
64019;BME280;66942;52.138;5.216;2023-04-30T09:22:18;102448.0;;;24.83;30.29
64019;BME280;66942;52.138;5.216;2023-04-30T09:25:38;102440.00000000001;;;24.68;31.32
64019;BME280;66942;52.138;5.216;2023-04-30T09:27:15;102440.00000000001;;;24.78;30.36
64019;BME280;66942;52.138;5.216;2023-04-30T09:28:54;102433.0;;;24.85;30.34
64019;BME280;66942;52.138;5.216;2023-04-30T09:30:31;102438.00000000001;;;24.26;31.67
64019;BME280;66942;52.138;5.216;2023-04-30T09:33:45;102427.0;;;24.67;29.19
64019;BME280;66942;52.138;5.216;2023-04-30T09:35:28;102430.0;;;23.99;30.89
64019;BME280;66942;52.138;5.216;2023-04-30T09:37:04;102422.0;;;24.59;31.34
64019;BME280;66942;52.138;5.216;2023-04-30T09:40:31;102426.0;;;24.91;30.7
64019;BME280;66942;52.138;5.216;2023-04-30T09:42:08;102427.0;;;24.46;32.28
64019;BME280;66942;52.138;5.216;2023-04-30T09:43:46;102421.0;;;24.88;31.46
64019;BME280;66942;52.138;5.216;2023-04-30T09:45:22;102417.0;;;24.54;30.62
64019;BME280;66942;52.138;5.216;2023-04-30T09:48:34;102417.0;;;24.53;29.88
64019;BME280;66942;52.138;5.216;2023-04-30T09:50:17;102422.0;;;25.13;29.75
64019;BME280;66942;52.138;5.216;2023-04-30T09:51:54;102419.0;;;25.14;30.2
64019;BME280;66942;52.138;5.216;2023-04-30T09:55:12;102417.0;;;25.25;29.56
64019;BME280;66942;52.138;5.216;2023-04-30T09:56:49;102418.0;;;25.32;31.5
64019;BME280;66942;52.138;5.216;2023-04-30T09:58:29;102409.99999999999;;;25.16;29.02
64019;BME280;66942;52.138;5.216;2023-04-30T10:00:11;102416.00000000001;;;24.97;29.14
64019;BME280;66942;52.138;5.216;2023-04-30T10:03:28;102413.00000000001;;;24.62;29.78
64019;BME280;66942;52.138;5.216;2023-04-30T10:05:06;102411.99999999999;;;24.93;29.96
64019;BME280;66942;52.138;5.216;2023-04-30T10:06:43;102413.00000000001;;;24.6;31.48
64019;BME280;66942;52.138;5.216;2023-04-30T10:08:24;102407.0;;;24.74;30.93
64019;BME280;66942;52.138;5.216;2023-04-30T10:11:44;102405.0;;;24.86;30.66
64019;BME280;66942;52.138;5.216;2023-04-30T10:13:24;102401.0;;;25.21;31.63
64019;BME280;66942;52.138;5.216;2023-04-30T10:15:10;102398.0;;;25.56;30.4
64019;BME280;66942;52.138;5.216;2023-04-30T10:16:53;102398.0;;;25.31;30.32
64019;BME280;66942;52.138;5.216;2023-04-30T10:20:12;102393.0;;;25.44;29.85
64019;BME280;66942;52.138;5.216;2023-04-30T10:21:50;102397.0;;;25.48;29.76
64019;BME280;66942;52.138;5.216;2023-04-30T10:23:28;102401.0;;;25.88;29.38
64019;BME280;66942;52.138;5.216;2023-04-30T10:25:05;102393.0;;;24.71;30.76
64019;BME280;66942;52.138;5.216;2023-04-30T10:28:19;102395.0;;;25.95;30.36
64019;BME280;66942;52.138;5.216;2023-04-30T10:29:56;102388.0;;;25.91;31.14
64019;BME280;66942;52.138;5.216;2023-04-30T10:31:34;102389.0;;;25.53;29.73
64019;BME280;66942;52.138;5.216;2023-04-30T10:35:04;102380.0;;;25.77;29.35
64019;BME280;66942;52.138;5.216;2023-04-30T10:36:46;102378.0;;;26.05;29.76
64019;BME280;66942;52.138;5.216;2023-04-30T10:38:27;102380.0;;;26.01;29.56
64019;BME280;66942;52.138;5.216;2023-04-30T10:40:04;102380.0;;;25.84;30.55
64019;BME280;66942;52.138;5.216;2023-04-30T10:41:44;102382.0;;;25.36;30.11
64019;BME280;66942;52.138;5.216;2023-04-30T10:45:00;102382.0;;;25.69;30.5